createdAt,value
2023-04-15T00:00:13.240Z,1.60
2023-04-15T00:03:22.134Z,1.70
2023-04-15T00:06:31.896Z,1.40
2023-04-15T00:09:42.798Z,1.30
2023-04-15T00:12:50.984Z,1.40
2023-04-15T00:15:59.273Z,1.80
2023-04-15T00:19:07.454Z,1.70
2023-04-15T00:22:17.469Z,1.40
2023-04-15T00:25:25.816Z,1.33
2023-04-15T00:28:34.036Z,1.30
2023-04-15T00:31:42.746Z,1.60
2023-04-15T00:34:52.473Z,1.90
2023-04-15T00:38:02.262Z,1.60
2023-04-15T00:41:12.320Z,1.73
2023-04-15T00:44:21.161Z,1.83
2023-04-15T00:47:32.368Z,1.87
2023-04-15T00:50:40.574Z,1.50
2023-04-15T00:53:51.886Z,1.60
2023-04-15T00:57:00.823Z,1.90
2023-04-15T01:00:11.622Z,1.83
2023-04-15T01:03:20.799Z,1.80
2023-04-15T01:06:29.246Z,1.43
2023-04-15T01:09:39.167Z,2.07
2023-04-15T01:12:47.542Z,1.80
2023-04-15T01:15:58.385Z,2.03
2023-04-15T01:19:07.567Z,1.97
2023-04-15T01:22:16.202Z,2.20
2023-04-15T01:25:33.267Z,1.97
2023-04-15T01:28:41.631Z,2.27
2023-04-15T01:31:57.602Z,2.30
2023-04-15T01:35:08.893Z,1.47
2023-04-15T01:38:17.229Z,1.83
2023-04-15T01:41:29.319Z,1.80
2023-04-15T01:44:37.441Z,1.90
2023-04-15T01:47:45.701Z,2.13
2023-04-15T01:50:55.263Z,1.60
2023-04-15T01:54:04.747Z,1.60
2023-04-15T01:57:14.476Z,1.77
2023-04-15T02:00:23.372Z,2.00
2023-04-15T02:03:33.956Z,1.97
2023-04-15T02:06:42.225Z,1.73
2023-04-15T02:09:50.402Z,2.03
2023-04-15T02:12:59.980Z,2.23
2023-04-15T02:16:18.797Z,1.70
2023-04-15T02:19:27.096Z,1.90
2023-04-15T02:22:35.819Z,2.03
2023-04-15T02:25:53.949Z,1.83
2023-04-15T02:29:04.082Z,2.00
2023-04-15T02:32:13.149Z,1.73
2023-04-15T02:35:21.623Z,1.87
2023-04-15T02:38:31.003Z,1.77
2023-04-15T02:41:39.344Z,2.00
2023-04-15T02:44:48.928Z,1.83
2023-04-15T02:47:57.545Z,1.70
2023-04-15T02:51:15.510Z,1.80
2023-04-15T02:54:24.975Z,1.50
2023-04-15T02:57:33.373Z,1.50
2023-04-15T03:00:50.901Z,1.60
2023-04-15T03:03:59.148Z,1.80
2023-04-15T03:07:07.284Z,1.53
2023-04-15T03:10:15.566Z,1.63
2023-04-15T03:13:24.571Z,2.20
2023-04-15T03:16:34.089Z,1.73
2023-04-15T03:19:42.295Z,1.90
2023-04-15T03:22:50.933Z,1.50
2023-04-15T03:26:04.065Z,1.90
2023-04-15T03:29:14.036Z,1.60
2023-04-15T03:32:23.704Z,2.10
2023-04-15T03:35:31.843Z,1.57
2023-04-15T03:38:40.008Z,1.97
2023-04-15T03:41:48.214Z,1.43
2023-04-15T03:44:57.920Z,2.27
2023-04-15T03:48:17.341Z,1.67
2023-04-15T03:51:26.661Z,1.67
2023-04-15T03:54:34.848Z,1.30
2023-04-15T03:57:43.086Z,1.33
2023-04-15T04:00:51.290Z,1.63
2023-04-15T04:04:01.079Z,1.57
2023-04-15T04:07:09.350Z,1.27
2023-04-15T04:10:17.882Z,1.50
2023-04-15T04:13:26.062Z,1.40
2023-04-15T04:16:34.211Z,1.47
2023-04-15T04:19:43.707Z,1.20
2023-04-15T04:22:51.953Z,1.10
2023-04-15T04:26:00.093Z,1.20
2023-04-15T04:29:08.226Z,1.00
2023-04-15T04:32:16.452Z,1.47
2023-04-15T04:35:26.467Z,1.20
2023-04-15T04:38:34.628Z,1.00
2023-04-15T04:41:42.662Z,1.33
2023-04-15T04:44:50.724Z,1.60
2023-04-15T04:47:58.811Z,1.27
2023-04-15T04:51:09.421Z,1.43
2023-04-15T04:54:17.629Z,1.20
2023-04-15T04:57:25.917Z,1.40
2023-04-15T05:00:34.110Z,1.17
2023-04-15T05:03:42.890Z,1.40
2023-04-15T05:06:52.488Z,0.90
2023-04-15T05:10:00.606Z,0.90
2023-04-15T05:13:08.749Z,1.50
2023-04-15T05:16:17.010Z,1.23
2023-04-15T05:19:25.451Z,1.20
2023-04-15T05:22:35.601Z,1.20
2023-04-15T05:25:43.681Z,0.87
2023-04-15T05:28:51.913Z,1.40
2023-04-15T05:32:00.199Z,1.63
2023-04-15T05:35:09.047Z,1.23
2023-04-15T05:38:18.553Z,2.00
2023-04-15T05:41:26.666Z,0.90
2023-04-15T05:44:34.852Z,1.70
2023-04-15T05:47:43.164Z,1.20
2023-04-15T05:50:51.411Z,1.27
2023-04-15T05:54:01.307Z,1.47
2023-04-15T05:57:09.440Z,1.37
2023-04-15T06:00:18.030Z,1.13
2023-04-15T06:03:26.438Z,1.00
2023-04-15T06:06:34.743Z,1.07
2023-04-15T06:09:44.828Z,1.83
2023-04-15T06:12:54.574Z,1.00
2023-04-15T06:16:02.886Z,0.80
2023-04-15T06:19:12.400Z,1.93
2023-04-15T06:22:20.757Z,1.17
2023-04-15T06:25:30.200Z,0.90
2023-04-15T06:28:38.262Z,1.00
2023-04-15T06:31:48.529Z,0.60
2023-04-15T06:34:56.763Z,0.90
2023-04-15T06:38:04.860Z,1.53
2023-04-15T06:41:14.430Z,1.07
2023-04-15T06:44:22.527Z,2.47
2023-04-15T06:47:30.819Z,1.37
2023-04-15T06:50:39.072Z,1.10
2023-04-15T06:53:47.136Z,0.77
2023-04-15T06:56:56.817Z,0.87
2023-04-15T07:00:07.501Z,0.73
2023-04-15T07:03:16.066Z,0.90
2023-04-15T07:06:24.742Z,0.90
2023-04-15T07:09:34.212Z,1.50
2023-04-15T07:12:43.624Z,2.17
2023-04-15T07:15:51.658Z,0.70
2023-04-15T07:19:00.005Z,0.60
2023-04-15T07:22:08.421Z,0.80
2023-04-15T07:25:17.706Z,0.60
2023-04-15T07:28:29.140Z,0.70
2023-04-15T07:31:37.772Z,0.80
2023-04-15T07:34:46.390Z,0.70
2023-04-15T07:37:54.582Z,0.50
2023-04-15T07:41:02.724Z,0.60
2023-04-15T07:44:12.883Z,0.60
2023-04-15T07:47:21.054Z,0.50
2023-04-15T07:50:29.861Z,1.13
2023-04-15T07:53:38.116Z,0.57
2023-04-15T07:56:46.212Z,0.60
2023-04-15T07:59:56.265Z,0.63
2023-04-15T08:03:04.938Z,0.73
2023-04-15T08:06:13.216Z,0.70
2023-04-15T08:09:21.664Z,0.67
2023-04-15T08:12:31.781Z,0.60
2023-04-15T08:15:41.245Z,0.90
2023-04-15T08:18:51.448Z,0.90
2023-04-15T08:22:00.569Z,0.70
2023-04-15T08:25:10.286Z,0.60
2023-04-15T08:28:18.349Z,0.60
2023-04-15T08:31:30.953Z,0.90
2023-04-15T08:34:39.472Z,0.70
2023-04-15T08:37:47.640Z,0.63
2023-04-15T08:40:59.292Z,0.80
2023-04-15T08:44:08.538Z,0.70
2023-04-15T08:47:22.787Z,0.73
2023-04-15T08:50:33.833Z,0.80
2023-04-15T08:53:42.068Z,0.90
2023-04-15T08:56:50.989Z,1.00
2023-04-15T08:59:59.645Z,0.63
2023-04-15T09:03:11.180Z,0.80
2023-04-15T09:06:19.993Z,0.80
2023-04-15T09:09:29.142Z,0.87
2023-04-15T09:12:38.357Z,1.00
2023-04-15T09:15:47.189Z,1.00
2023-04-15T09:18:56.820Z,0.80
2023-04-15T09:22:05.389Z,1.00
2023-04-15T09:25:33.518Z,1.20
2023-04-15T09:28:44.218Z,0.90
2023-04-15T09:31:52.665Z,1.70
2023-04-15T09:35:13.496Z,1.03
2023-04-15T09:38:21.627Z,1.00
2023-04-15T09:41:29.863Z,1.20
2023-04-15T09:44:40.086Z,1.07
2023-04-15T09:47:48.216Z,1.07
2023-04-15T09:51:02.998Z,1.00
2023-04-15T09:54:11.556Z,1.90
2023-04-15T09:57:19.761Z,1.70
2023-04-15T10:00:28.047Z,1.63
2023-04-15T10:03:37.581Z,1.60
2023-04-15T10:06:47.402Z,1.10
2023-04-15T10:09:56.796Z,1.60
2023-04-15T10:13:07.600Z,2.10
2023-04-15T10:16:18.003Z,3.23
2023-04-15T10:19:34.257Z,3.20
2023-04-15T10:22:48.700Z,1.70
2023-04-15T10:25:58.853Z,1.63
2023-04-15T10:29:08.103Z,2.83
2023-04-15T10:32:17.585Z,5.17
2023-04-15T10:35:26.961Z,1.50
2023-04-15T10:38:41.803Z,1.60
2023-04-15T10:42:08.692Z,1.77
2023-04-15T10:45:19.954Z,1.53
2023-04-15T10:48:28.180Z,1.40
2023-04-15T10:51:42.959Z,1.80
2023-04-15T10:55:05.394Z,1.67
2023-04-15T10:58:15.079Z,2.00
2023-04-15T11:01:24.238Z,1.73
2023-04-15T11:05:01.816Z,1.70
2023-04-15T11:08:11.041Z,1.80
2023-04-15T11:11:22.147Z,2.23
2023-04-15T11:14:30.298Z,1.47
2023-04-15T11:17:38.727Z,1.67
2023-04-15T11:20:50.540Z,2.17
2023-04-15T11:23:58.897Z,2.03
2023-04-15T11:27:08.410Z,2.33
2023-04-15T11:30:22.664Z,1.67
2023-04-15T11:33:31.105Z,1.90
2023-04-15T11:36:40.215Z,1.80
2023-04-15T11:39:50.433Z,2.43
2023-04-15T11:43:11.961Z,2.17
2023-04-15T11:46:22.997Z,2.20
2023-04-15T11:49:34.041Z,2.13
2023-04-15T11:52:55.348Z,1.70
2023-04-15T11:56:03.843Z,1.87
2023-04-15T11:59:13.815Z,1.80
2023-04-15T12:02:31.919Z,2.13
2023-04-15T12:06:10.485Z,1.80
2023-04-15T12:09:20.288Z,2.70
2023-04-15T12:12:31.076Z,1.93
2023-04-15T12:15:41.937Z,2.80
2023-04-15T12:18:53.750Z,2.83
2023-04-15T12:22:05.479Z,2.27
2023-04-15T12:25:15.068Z,2.27
2023-04-15T12:28:23.528Z,2.30
2023-04-15T12:31:33.375Z,2.20
2023-04-15T12:34:46.169Z,2.83
2023-04-15T12:37:54.389Z,3.07
2023-04-15T12:41:02.781Z,2.17
2023-04-15T12:44:12.318Z,2.10
2023-04-15T12:47:22.187Z,2.57
2023-04-15T12:50:30.752Z,2.40
2023-04-15T12:53:39.186Z,2.20
2023-04-15T12:56:49.066Z,2.47
2023-04-15T12:59:57.478Z,1.90
2023-04-15T13:03:07.486Z,2.40
2023-04-15T13:06:16.051Z,1.90
2023-04-15T13:09:24.359Z,4.50
2023-04-15T13:12:33.016Z,2.13
2023-04-15T13:15:41.260Z,2.20
2023-04-15T13:18:51.361Z,1.83
2023-04-15T13:21:59.856Z,1.90
2023-04-15T13:25:09.728Z,1.80
2023-04-15T13:28:18.187Z,2.00
2023-04-15T13:31:27.266Z,1.80
2023-04-15T13:34:37.116Z,2.10
2023-04-15T13:37:45.331Z,3.47
2023-04-15T13:40:53.634Z,5.27
2023-04-15T13:44:02.291Z,5.63
2023-04-15T13:47:11.068Z,3.47
2023-04-15T13:50:21.034Z,2.17
2023-04-15T13:53:37.840Z,1.30
2023-04-15T13:56:47.666Z,1.47
2023-04-15T13:59:55.967Z,1.20
2023-04-15T14:03:04.347Z,1.23
2023-04-15T14:06:13.916Z,1.47
2023-04-15T14:09:26.218Z,1.60
2023-04-15T14:12:35.018Z,1.80
2023-04-15T14:15:43.404Z,1.50
2023-04-15T14:18:51.746Z,1.20
2023-04-15T14:22:01.857Z,1.50
2023-04-15T14:25:17.278Z,1.90
2023-04-15T14:28:32.189Z,1.73
2023-04-15T14:31:41.208Z,2.20
2023-04-15T14:34:51.102Z,2.47
2023-04-15T14:38:00.627Z,1.73
2023-04-15T14:41:10.506Z,1.67
2023-04-15T14:44:19.634Z,2.07
2023-04-15T14:47:27.947Z,1.53
2023-04-15T14:50:36.388Z,1.53
2023-04-15T14:53:46.372Z,1.80
2023-04-15T14:56:54.780Z,1.53
2023-04-15T15:00:03.641Z,1.47
2023-04-15T15:03:15.815Z,1.63
2023-04-15T15:06:25.148Z,1.13
2023-04-15T15:09:35.133Z,1.10
2023-04-15T15:12:43.477Z,1.37
2023-04-15T15:15:52.042Z,1.10
2023-04-15T15:19:00.502Z,1.20
2023-04-15T15:22:08.846Z,1.50
2023-04-15T15:25:19.304Z,1.30
2023-04-15T15:28:28.369Z,1.37
2023-04-15T15:31:37.176Z,1.40
2023-04-15T15:34:49.153Z,1.63
2023-04-15T15:37:57.721Z,1.50
2023-04-15T15:41:07.444Z,1.23
2023-04-15T15:44:16.100Z,2.10
2023-04-15T15:47:26.550Z,2.77
2023-04-15T15:50:35.634Z,2.00
2023-04-15T15:53:44.867Z,1.43
2023-04-15T15:56:54.660Z,2.00
2023-04-15T16:03:14.626Z,1.77
2023-04-15T16:06:22.823Z,1.50
2023-04-15T16:09:31.373Z,2.77
2023-04-15T16:12:41.873Z,2.03
2023-04-15T16:15:51.130Z,2.20
2023-04-15T16:18:59.496Z,2.60
2023-04-15T16:22:07.664Z,3.40
2023-04-15T16:25:16.380Z,3.30
2023-04-15T16:28:27.323Z,3.57
2023-04-15T16:31:37.348Z,2.47
2023-04-15T16:34:45.529Z,2.70
2023-04-15T16:37:53.817Z,2.60
2023-04-15T16:41:03.289Z,2.20
2023-04-15T16:44:12.795Z,1.97
2023-04-15T16:47:20.953Z,2.60
2023-04-15T16:50:29.287Z,2.10
2023-04-15T16:53:37.389Z,2.13
2023-04-15T16:56:45.446Z,1.90
2023-04-15T16:59:54.995Z,2.47
2023-04-15T17:03:04.080Z,2.83
2023-04-15T17:06:12.349Z,1.93
2023-04-15T17:09:20.453Z,2.43
2023-04-15T17:12:28.838Z,2.60
2023-04-15T17:15:38.361Z,2.00
2023-04-15T17:18:47.370Z,2.93
2023-04-15T17:21:55.492Z,1.50
2023-04-15T17:25:04.613Z,1.40
2023-04-15T17:28:13.025Z,1.97
2023-04-15T17:31:22.686Z,1.40
2023-04-15T17:34:50.681Z,1.63
2023-04-15T17:37:59.468Z,1.43
2023-04-15T17:41:08.424Z,1.50
2023-04-15T17:44:16.655Z,1.53
2023-04-15T17:47:26.709Z,2.07
2023-04-15T17:50:35.636Z,2.47
2023-04-15T17:53:43.706Z,2.00
2023-04-15T17:56:52.508Z,2.03
2023-04-15T18:00:00.792Z,2.23
2023-04-15T18:03:11.694Z,3.67
2023-04-15T18:06:21.554Z,3.93
2023-04-15T18:09:29.751Z,3.10
2023-04-15T18:12:38.286Z,3.60
2023-04-15T18:15:47.597Z,5.03
2023-04-15T18:18:57.425Z,3.50
2023-04-15T18:22:05.564Z,3.57
2023-04-15T18:25:13.923Z,3.70
2023-04-15T18:28:23.004Z,2.93
2023-04-15T18:31:31.756Z,3.40
2023-04-15T18:34:42.800Z,4.10
2023-04-15T18:37:51.159Z,3.70
2023-04-15T18:40:59.945Z,3.43
2023-04-15T18:44:08.148Z,3.30
2023-04-15T18:47:17.083Z,3.10
2023-04-15T18:50:26.943Z,3.07
2023-04-15T18:53:35.766Z,2.80
2023-04-15T18:56:44.085Z,2.67
2023-04-15T18:59:52.848Z,3.37
2023-04-15T19:03:01.260Z,3.10
2023-04-15T19:06:11.363Z,5.03
2023-04-15T19:09:19.538Z,3.07
2023-04-15T19:12:28.097Z,3.97
2023-04-15T19:15:36.213Z,2.27
2023-04-15T19:18:44.435Z,2.23
2023-04-15T19:21:54.485Z,3.17
2023-04-15T19:25:02.746Z,4.23
2023-04-15T19:28:11.382Z,4.37
2023-04-15T19:31:20.202Z,3.67
2023-04-15T19:34:28.378Z,2.60
2023-04-15T19:37:38.945Z,2.50
2023-04-15T19:40:47.139Z,2.63
2023-04-15T19:43:55.644Z,2.60
2023-04-15T19:47:04.022Z,2.87
2023-04-15T19:50:12.931Z,3.00
2023-04-15T19:53:22.396Z,3.17
2023-04-15T19:56:31.744Z,3.57
2023-04-15T19:59:42.229Z,2.70
2023-04-15T20:02:50.697Z,2.40
2023-04-15T20:05:58.984Z,2.43
2023-04-15T20:09:11.087Z,3.03
2023-04-15T20:12:50.412Z,3.73
2023-04-15T20:15:49.957Z,3.10
2023-04-15T20:18:59.531Z,4.00
2023-04-15T20:22:08.083Z,3.77
2023-04-15T20:25:17.568Z,3.40
2023-04-15T20:28:27.495Z,3.00
2023-04-15T20:31:36.209Z,3.27
2023-04-15T20:34:44.850Z,3.63
2023-04-15T20:37:53.225Z,3.93
2023-04-15T20:41:02.872Z,3.30
2023-04-15T20:44:11.007Z,2.90
2023-04-15T20:47:19.793Z,2.10
2023-04-15T20:50:28.849Z,2.60
2023-04-15T20:53:37.007Z,2.30
2023-04-15T20:56:46.902Z,2.07
2023-04-15T20:59:55.064Z,2.53
2023-04-15T21:03:03.764Z,2.20
2023-04-15T21:06:12.510Z,2.53
2023-04-15T21:09:20.958Z,2.50
2023-04-15T21:12:30.476Z,2.80
2023-04-15T21:15:38.762Z,2.50
2023-04-15T21:18:47.102Z,2.73
2023-04-15T21:21:55.223Z,2.77
2023-04-15T21:25:03.684Z,2.67
2023-04-15T21:28:13.385Z,2.30
2023-04-15T21:31:22.355Z,2.57
2023-04-15T21:34:30.630Z,3.20
2023-04-15T21:37:38.921Z,2.57
2023-04-15T21:40:47.743Z,2.70
2023-04-15T21:43:58.023Z,2.57
2023-04-15T21:47:06.148Z,2.70
2023-04-15T21:50:15.595Z,2.60
2023-04-15T21:53:24.331Z,2.63
2023-04-15T21:56:33.842Z,2.53
2023-04-15T21:59:43.562Z,2.20
2023-04-15T22:02:52.146Z,2.30
2023-04-15T22:06:00.477Z,2.50
2023-04-15T22:09:08.583Z,2.27
2023-04-15T22:12:16.778Z,2.43
2023-04-15T22:15:26.265Z,1.80
2023-04-15T22:18:34.318Z,2.27
2023-04-15T22:21:42.935Z,2.00
2023-04-15T22:24:50.991Z,2.20
2023-04-15T22:27:59.054Z,1.77
2023-04-15T22:31:09.275Z,1.70
2023-04-15T22:34:21.215Z,1.87
2023-04-15T22:37:30.490Z,1.73
2023-04-15T22:40:38.845Z,1.70
2023-04-15T22:43:47.588Z,1.30
2023-04-15T22:46:57.488Z,1.40
2023-04-15T22:50:08.073Z,1.20
2023-04-15T22:53:18.234Z,1.40
2023-04-15T22:56:26.836Z,1.43
2023-04-15T22:59:35.343Z,1.30
2023-04-15T23:02:45.711Z,1.13
2023-04-15T23:05:53.940Z,1.20
2023-04-15T23:09:02.056Z,1.27
2023-04-15T23:12:10.405Z,1.07
2023-04-15T23:15:18.468Z,0.90
2023-04-15T23:18:28.417Z,1.00
2023-04-15T23:21:36.530Z,1.43
2023-04-15T23:24:44.582Z,1.33
2023-04-15T23:27:52.828Z,1.50
2023-04-15T23:31:01.159Z,1.50
2023-04-15T23:34:10.867Z,1.47
2023-04-15T23:37:19.740Z,1.37
2023-04-15T23:40:27.956Z,1.43
2023-04-15T23:43:36.677Z,1.37
2023-04-15T23:46:44.816Z,1.30
2023-04-15T23:49:54.377Z,1.30
2023-04-15T23:53:02.501Z,1.10
2023-04-15T23:56:11.114Z,1.17
2023-04-15T23:59:19.477Z,1.20
